createdAt,value
2023-05-10T00:00:47.459Z,6.71
2023-05-10T00:03:15.545Z,6.64
2023-05-10T00:05:43.654Z,6.60
2023-05-10T00:08:11.621Z,6.59
2023-05-10T00:10:39.622Z,6.56
2023-05-10T00:13:08.092Z,6.53
2023-05-10T00:15:36.249Z,6.43
2023-05-10T00:18:04.352Z,6.33
2023-05-10T00:20:32.782Z,6.26
2023-05-10T00:23:00.852Z,6.18
2023-05-10T00:25:28.916Z,6.10
2023-05-10T00:27:58.299Z,6.05
2023-05-10T00:30:26.425Z,6.02
2023-05-10T00:32:54.827Z,6.00
2023-05-10T00:35:23.138Z,5.99
2023-05-10T00:37:51.187Z,5.97
2023-05-10T00:40:19.412Z,6.04
2023-05-10T00:42:50.342Z,6.11
2023-05-10T00:45:18.528Z,6.18
2023-05-10T00:47:46.670Z,6.24
2023-05-10T00:50:16.741Z,6.25
2023-05-10T00:52:45.245Z,6.12
2023-05-10T00:55:14.714Z,6.10
2023-05-10T00:57:43.652Z,6.14
2023-05-10T01:00:13.541Z,6.16
2023-05-10T01:02:42.668Z,6.21
2023-05-10T01:05:10.985Z,6.25
2023-05-10T01:07:39.689Z,6.31
2023-05-10T01:10:09.381Z,6.37
2023-05-10T01:12:40.887Z,6.36
2023-05-10T01:15:11.954Z,6.35
2023-05-10T01:17:41.737Z,6.36
2023-05-10T01:20:11.585Z,6.32
2023-05-10T01:22:39.523Z,6.19
2023-05-10T01:25:26.514Z,6.22
2023-05-10T01:28:11.000Z,6.28
2023-05-10T01:31:03.809Z,6.34
2023-05-10T01:33:36.986Z,6.30
2023-05-10T01:36:14.941Z,6.32
2023-05-10T01:38:51.730Z,6.27
2023-05-10T01:41:30.229Z,6.30
2023-05-10T01:44:01.383Z,6.28
2023-05-10T01:46:59.283Z,6.22
2023-05-10T01:49:35.945Z,6.13
2023-05-10T01:52:15.250Z,6.02
2023-05-10T01:54:50.294Z,5.95
2023-05-10T01:57:21.671Z,5.94
2023-05-10T01:59:52.412Z,5.97
2023-05-10T02:02:22.314Z,5.98
2023-05-10T02:04:53.284Z,5.99
2023-05-10T02:07:22.952Z,6.00
2023-05-10T02:09:52.268Z,5.93
2023-05-10T02:12:22.346Z,5.94
2023-05-10T02:14:53.977Z,5.89
2023-05-10T02:17:23.489Z,5.72
2023-05-10T02:19:54.366Z,5.65
2023-05-10T02:22:23.469Z,5.56
2023-05-10T02:24:52.127Z,5.51
2023-05-10T02:27:21.704Z,5.44
2023-05-10T02:29:51.805Z,5.35
2023-05-10T02:32:20.451Z,5.34
2023-05-10T02:34:52.986Z,5.30
2023-05-10T02:37:23.126Z,5.30
2023-05-10T02:39:53.332Z,5.24
2023-05-10T02:42:26.920Z,5.18
2023-05-10T02:45:01.192Z,5.18
2023-05-10T02:47:30.260Z,5.17
2023-05-10T02:49:58.492Z,5.21
2023-05-10T02:52:29.405Z,5.19
2023-05-10T02:55:02.150Z,5.15
2023-05-10T02:57:36.686Z,5.04
2023-05-10T03:00:06.014Z,4.97
2023-05-10T03:02:34.520Z,4.97
2023-05-10T03:05:03.846Z,4.93
2023-05-10T03:07:32.322Z,4.91
2023-05-10T03:10:01.384Z,4.88
2023-05-10T03:12:41.615Z,4.90
2023-05-10T03:15:28.044Z,4.86
2023-05-10T03:18:10.599Z,4.83
2023-05-10T03:20:49.923Z,4.81
2023-05-10T03:23:42.368Z,4.86
2023-05-10T03:26:16.938Z,4.85
2023-05-10T03:28:46.591Z,4.91
2023-05-10T03:31:15.285Z,4.92
2023-05-10T03:33:51.415Z,4.96
2023-05-10T03:36:23.913Z,5.00
2023-05-10T03:38:52.249Z,4.96
2023-05-10T03:41:21.705Z,4.91
2023-05-10T03:43:49.919Z,4.88
2023-05-10T03:46:18.263Z,4.93
2023-05-10T03:48:46.920Z,4.96
2023-05-10T03:51:15.216Z,4.89
2023-05-10T03:53:43.609Z,4.91
2023-05-10T03:56:12.080Z,4.90
2023-05-10T03:58:40.407Z,4.87
2023-05-10T04:01:08.752Z,4.85
2023-05-10T04:03:37.908Z,4.79
2023-05-10T04:06:09.302Z,4.87
2023-05-10T04:08:37.349Z,4.94
2023-05-10T04:11:10.351Z,4.98
2023-05-10T04:13:39.242Z,5.20
2023-05-10T04:16:07.855Z,5.35
2023-05-10T04:18:36.465Z,5.59
2023-05-10T04:21:04.885Z,5.95
2023-05-10T04:23:33.236Z,6.28
2023-05-10T04:26:02.532Z,6.60
2023-05-10T04:28:30.614Z,6.96
2023-05-10T04:31:10.209Z,7.20
2023-05-10T04:33:38.232Z,7.34
2023-05-10T04:36:06.762Z,7.45
2023-05-10T04:38:34.710Z,7.60
2023-05-10T04:41:08.173Z,7.93
2023-05-10T04:43:37.397Z,8.15
2023-05-10T04:46:06.222Z,8.30
2023-05-10T04:48:34.733Z,8.54
2023-05-10T04:51:04.610Z,8.55
2023-05-10T04:53:32.734Z,8.81
2023-05-10T04:56:00.794Z,9.08
2023-05-10T04:58:28.905Z,9.16
2023-05-10T05:00:57.349Z,9.26
2023-05-10T05:03:25.712Z,9.52
2023-05-10T05:05:53.966Z,9.82
2023-05-10T05:08:22.059Z,9.54
2023-05-10T05:10:51.266Z,9.79
2023-05-10T05:13:19.865Z,10.02
2023-05-10T05:15:48.071Z,10.14
2023-05-10T05:18:16.194Z,10.11
2023-05-10T05:20:44.302Z,10.16
2023-05-10T05:23:12.723Z,10.31
2023-05-10T05:25:40.769Z,10.46
2023-05-10T05:28:08.858Z,10.28
2023-05-10T05:30:36.917Z,10.36
2023-05-10T05:33:05.181Z,10.53
2023-05-10T05:35:33.453Z,10.69
2023-05-10T05:38:02.064Z,10.75
2023-05-10T05:40:30.323Z,10.81
2023-05-10T05:42:58.400Z,10.99
2023-05-10T05:45:26.466Z,11.30
2023-05-10T05:47:54.477Z,11.42
2023-05-10T05:50:22.563Z,11.50
2023-05-10T05:52:50.968Z,11.53
2023-05-10T05:55:19.401Z,11.44
2023-05-10T05:57:48.182Z,11.54
2023-05-10T06:00:17.219Z,11.58
2023-05-10T06:02:46.772Z,11.49
2023-05-10T06:05:16.892Z,11.39
2023-05-10T06:07:45.580Z,11.43
2023-05-10T06:10:14.077Z,11.78
2023-05-10T06:12:42.750Z,11.75
2023-05-10T06:15:11.695Z,11.88
2023-05-10T06:17:40.046Z,11.79
2023-05-10T06:20:08.952Z,11.77
2023-05-10T06:22:37.291Z,11.81
2023-05-10T06:25:06.407Z,11.91
2023-05-10T06:27:34.688Z,11.91
2023-05-10T06:30:12.287Z,11.77
2023-05-10T06:32:41.379Z,11.87
2023-05-10T06:35:10.344Z,11.98
2023-05-10T06:37:38.278Z,11.92
2023-05-10T06:40:08.505Z,12.04
2023-05-10T06:42:36.607Z,12.05
2023-05-10T06:45:05.230Z,11.96
2023-05-10T06:47:33.338Z,11.97
2023-05-10T06:50:01.892Z,11.99
2023-05-10T06:52:29.854Z,12.08
2023-05-10T06:54:58.735Z,12.03
2023-05-10T06:57:31.828Z,12.22
2023-05-10T07:00:00.517Z,12.19
2023-05-10T07:02:29.152Z,12.22
2023-05-10T07:04:59.471Z,12.31
2023-05-10T07:07:29.942Z,12.42
2023-05-10T07:09:58.804Z,12.48
2023-05-10T07:12:27.224Z,12.59
2023-05-10T07:14:55.687Z,12.75
2023-05-10T07:17:23.883Z,12.85
2023-05-10T07:19:52.255Z,12.86
2023-05-10T07:22:20.460Z,13.01
2023-05-10T07:24:48.584Z,13.15
2023-05-10T07:27:17.093Z,13.33
2023-05-10T07:29:45.445Z,13.45
2023-05-10T07:32:13.641Z,13.30
2023-05-10T07:34:42.304Z,13.32
2023-05-10T07:37:10.422Z,13.35
2023-05-10T07:39:39.027Z,13.48
2023-05-10T07:42:07.372Z,13.59
2023-05-10T07:44:35.557Z,13.47
2023-05-10T07:47:03.836Z,13.46
2023-05-10T07:49:32.060Z,13.40
2023-05-10T07:52:00.456Z,13.32
2023-05-10T07:54:28.976Z,13.51
2023-05-10T07:56:57.354Z,13.61
2023-05-10T07:59:25.545Z,13.84
2023-05-10T08:01:53.861Z,13.95
2023-05-10T08:04:22.402Z,14.00
2023-05-10T08:06:50.996Z,14.07
2023-05-10T08:09:19.171Z,14.19
2023-05-10T08:11:47.444Z,14.05
2023-05-10T08:14:15.460Z,14.12
2023-05-10T08:16:43.508Z,14.17
2023-05-10T08:19:11.749Z,14.16
2023-05-10T08:21:41.585Z,14.30
2023-05-10T08:24:09.631Z,14.39
2023-05-10T08:26:37.934Z,14.39
2023-05-10T08:29:06.714Z,14.29
2023-05-10T08:31:35.005Z,14.35
2023-05-10T08:34:03.513Z,14.40
2023-05-10T08:36:33.146Z,14.51
2023-05-10T08:39:01.411Z,14.63
2023-05-10T08:41:34.457Z,14.67
2023-05-10T08:44:05.651Z,14.64
2023-05-10T08:46:40.724Z,14.61
2023-05-10T08:49:10.414Z,14.68
2023-05-10T08:51:45.172Z,14.75
2023-05-10T08:54:14.330Z,14.94
2023-05-10T08:56:42.936Z,15.08
2023-05-10T08:59:12.538Z,14.94
2023-05-10T09:01:43.594Z,15.12
2023-05-10T09:04:13.311Z,15.23
2023-05-10T09:06:42.547Z,15.06
2023-05-10T09:09:11.310Z,15.23
2023-05-10T09:11:39.375Z,15.35
2023-05-10T09:14:08.086Z,15.42
2023-05-10T09:16:36.493Z,15.46
2023-05-10T09:19:07.720Z,15.60
2023-05-10T09:21:41.894Z,15.74
2023-05-10T09:24:10.400Z,15.74
2023-05-10T09:26:51.243Z,15.82
2023-05-10T09:29:19.475Z,15.88
2023-05-10T09:31:56.458Z,15.91
2023-05-10T09:34:33.331Z,15.87
2023-05-10T09:37:03.830Z,15.96
2023-05-10T09:39:36.827Z,16.01
2023-05-10T09:42:07.449Z,16.02
2023-05-10T09:44:36.427Z,16.05
2023-05-10T09:47:05.328Z,16.05
2023-05-10T09:49:34.370Z,15.84
2023-05-10T09:52:07.641Z,15.78
2023-05-10T09:54:37.208Z,15.99
2023-05-10T09:57:06.236Z,16.10
2023-05-10T09:59:36.455Z,16.18
2023-05-10T10:02:04.752Z,15.99
2023-05-10T10:04:33.859Z,16.06
2023-05-10T10:07:06.391Z,16.30
2023-05-10T10:09:35.997Z,16.33
2023-05-10T10:12:05.783Z,16.25
2023-05-10T10:14:35.644Z,16.23
2023-05-10T10:17:08.137Z,16.30
2023-05-10T10:19:38.225Z,16.33
2023-05-10T10:22:07.363Z,16.44
2023-05-10T10:24:35.474Z,16.35
2023-05-10T10:27:24.895Z,16.26
2023-05-10T10:30:04.310Z,16.32
2023-05-10T10:32:53.975Z,16.48
2023-05-10T10:35:23.179Z,16.64
2023-05-10T10:37:52.165Z,16.57
2023-05-10T10:40:35.289Z,16.60
2023-05-10T10:43:28.206Z,16.65
2023-05-10T10:46:18.146Z,16.87
2023-05-10T10:48:52.778Z,16.73
2023-05-10T10:51:21.280Z,16.81
2023-05-10T10:53:49.733Z,17.06
2023-05-10T10:56:24.841Z,17.21
2023-05-10T10:58:54.665Z,17.32
2023-05-10T11:01:23.044Z,17.46
2023-05-10T11:04:06.719Z,17.57
2023-05-10T11:06:37.312Z,17.65
2023-05-10T11:09:10.150Z,17.79
2023-05-10T11:11:52.056Z,17.65
2023-05-10T11:14:23.632Z,17.37
2023-05-10T11:16:52.288Z,17.56
2023-05-10T11:19:21.257Z,17.69
2023-05-10T11:21:52.888Z,17.65
2023-05-10T11:24:24.177Z,17.65
2023-05-10T11:26:52.957Z,17.39
2023-05-10T11:29:21.395Z,17.45
2023-05-10T11:31:50.705Z,17.47
2023-05-10T11:34:31.520Z,16.81
2023-05-10T11:37:01.793Z,17.05
2023-05-10T11:39:32.017Z,17.36
2023-05-10T11:42:01.350Z,17.45
2023-05-10T11:44:35.937Z,17.55
2023-05-10T11:47:04.401Z,17.81
2023-05-10T11:49:33.105Z,17.95
2023-05-10T11:52:08.822Z,18.09
2023-05-10T11:54:37.017Z,18.11
2023-05-10T11:57:05.614Z,18.19
2023-05-10T11:59:33.876Z,18.05
2023-05-10T12:02:02.221Z,17.91
2023-05-10T12:04:31.317Z,17.93
2023-05-10T12:06:59.923Z,17.76
2023-05-10T12:11:59.256Z,17.54
2023-05-10T12:14:27.543Z,17.79
2023-05-10T12:16:58.308Z,18.05
2023-05-10T12:19:26.444Z,17.99
2023-05-10T12:21:54.943Z,18.00
2023-05-10T12:24:23.225Z,18.01
2023-05-10T12:26:51.508Z,17.96
2023-05-10T12:29:20.299Z,18.03
2023-05-10T12:31:58.566Z,18.26
2023-05-10T12:34:34.786Z,18.34
2023-05-10T12:37:04.147Z,18.43
2023-05-10T12:39:46.584Z,18.34
2023-05-10T12:42:15.125Z,18.32
2023-05-10T12:44:43.383Z,18.33
2023-05-10T12:47:12.008Z,18.11
2023-05-10T12:49:40.327Z,18.02
2023-05-10T12:52:08.639Z,17.70
2023-05-10T12:54:37.029Z,17.66
2023-05-10T12:57:05.469Z,17.89
2023-05-10T12:59:35.208Z,18.01
2023-05-10T13:02:04.218Z,18.02
2023-05-10T13:04:32.480Z,18.13
2023-05-10T13:07:00.613Z,17.91
2023-05-10T13:09:31.422Z,17.90
2023-05-10T13:11:59.660Z,17.83
2023-05-10T13:14:28.039Z,17.70
2023-05-10T13:16:56.347Z,17.63
2023-05-10T13:19:24.503Z,17.69
2023-05-10T13:21:52.653Z,17.75
2023-05-10T13:24:21.024Z,17.75
2023-05-10T13:26:49.711Z,17.57
2023-05-10T13:29:19.213Z,17.63
2023-05-10T13:31:47.588Z,17.67
2023-05-10T13:34:15.859Z,17.62
2023-05-10T13:36:43.997Z,17.49
2023-05-10T13:39:12.058Z,17.44
2023-05-10T13:41:40.692Z,17.41
2023-05-10T13:44:08.778Z,17.38
2023-05-10T13:46:36.817Z,17.24
2023-05-10T13:49:05.156Z,17.27
2023-05-10T13:51:34.966Z,17.37
2023-05-10T13:54:04.365Z,17.47
2023-05-10T13:56:32.500Z,17.57
2023-05-10T13:59:01.003Z,17.70
2023-05-10T14:01:29.241Z,17.82
2023-05-10T14:03:57.400Z,17.87
2023-05-10T14:06:25.507Z,17.94
2023-05-10T14:08:54.926Z,18.05
2023-05-10T14:11:24.859Z,18.10
2023-05-10T14:13:53.106Z,18.13
2023-05-10T14:16:21.495Z,18.22
2023-05-10T14:18:49.931Z,18.17
2023-05-10T14:21:18.157Z,17.92
2023-05-10T14:23:46.363Z,17.84
2023-05-10T14:26:14.618Z,17.97
2023-05-10T14:28:42.853Z,17.98
2023-05-10T14:31:11.107Z,17.91
2023-05-10T14:33:39.127Z,17.97
2023-05-10T14:36:08.053Z,17.99
2023-05-10T14:38:36.217Z,17.89
2023-05-10T14:41:04.564Z,17.87
2023-05-10T14:43:32.757Z,17.69
2023-05-10T14:46:01.065Z,17.70
2023-05-10T14:48:29.219Z,17.80
2023-05-10T14:50:57.295Z,17.83
2023-05-10T14:53:25.704Z,17.90
2023-05-10T14:55:54.025Z,17.85
2023-05-10T14:58:22.385Z,17.77
2023-05-10T15:00:50.661Z,17.72
2023-05-10T15:03:19.814Z,17.60
2023-05-10T15:05:48.383Z,17.51
2023-05-10T15:08:16.419Z,17.46
2023-05-10T15:10:44.322Z,17.52
2023-05-10T15:13:12.322Z,17.43
2023-05-10T15:15:40.745Z,17.30
2023-05-10T15:18:10.704Z,17.28
2023-05-10T15:20:38.962Z,17.39
2023-05-10T15:23:06.983Z,17.36
2023-05-10T15:25:38.684Z,17.36
2023-05-10T15:28:06.746Z,17.20
2023-05-10T15:30:35.016Z,17.25
2023-05-10T15:33:03.449Z,17.33
2023-05-10T15:35:31.649Z,17.44
2023-05-10T15:37:59.726Z,17.53
2023-05-10T15:40:27.805Z,17.66
2023-05-10T15:42:56.108Z,17.53
2023-05-10T15:45:24.369Z,17.52
2023-05-10T15:47:52.563Z,17.50
2023-05-10T15:50:21.071Z,17.53
2023-05-10T15:52:49.700Z,17.39
2023-05-10T15:55:18.155Z,17.33
2023-05-10T15:57:47.060Z,17.18
2023-05-10T16:00:15.910Z,17.09
2023-05-10T16:02:44.123Z,17.07
2023-05-10T16:05:12.514Z,16.93
2023-05-10T16:07:42.060Z,16.94
2023-05-10T16:10:11.370Z,17.01
2023-05-10T16:12:40.580Z,17.02
2023-05-10T16:15:09.300Z,16.89
2023-05-10T16:17:37.936Z,16.81
2023-05-10T16:20:06.607Z,16.72
2023-05-10T16:22:36.534Z,16.45
2023-05-10T16:25:05.379Z,16.30
2023-05-10T16:27:33.717Z,16.19
2023-05-10T16:30:02.149Z,16.05
2023-05-10T16:32:30.375Z,15.96
2023-05-10T16:34:59.216Z,15.77
2023-05-10T16:37:28.223Z,16.01
2023-05-10T16:39:56.691Z,16.67
2023-05-10T16:42:26.162Z,17.42
2023-05-10T16:44:55.053Z,18.04
2023-05-10T16:47:23.358Z,17.86
2023-05-10T16:49:51.409Z,17.76
2023-05-10T16:52:19.507Z,17.76
2023-05-10T16:54:47.648Z,18.27
2023-05-10T16:57:16.219Z,18.46
2023-05-10T16:59:44.165Z,18.20
2023-05-10T17:02:12.548Z,18.15
2023-05-10T17:04:41.072Z,17.45
2023-05-10T17:07:09.069Z,17.20
2023-05-10T17:09:37.118Z,16.84
2023-05-10T17:12:05.851Z,16.44
2023-05-10T17:14:34.249Z,16.17
2023-05-10T17:17:02.506Z,15.82
2023-05-10T17:19:31.237Z,15.90
2023-05-10T17:21:59.450Z,15.83
2023-05-10T17:24:29.869Z,15.51
2023-05-10T17:26:57.906Z,15.23
2023-05-10T17:29:27.182Z,15.18
2023-05-10T17:31:55.727Z,14.92
2023-05-10T17:34:23.872Z,14.74
2023-05-10T17:36:52.251Z,14.69
2023-05-10T17:39:20.516Z,14.68
2023-05-10T17:41:48.627Z,14.50
2023-05-10T17:44:16.910Z,14.29
2023-05-10T17:46:44.914Z,14.09
2023-05-10T17:49:13.129Z,13.95
2023-05-10T17:51:44.132Z,13.84
2023-05-10T17:54:12.218Z,13.71
2023-05-10T17:56:40.942Z,13.52
2023-05-10T17:59:09.117Z,13.41
2023-05-10T18:01:37.111Z,13.30
2023-05-10T18:04:06.203Z,13.16
2023-05-10T18:06:38.384Z,13.04
2023-05-10T18:09:07.444Z,12.87
2023-05-10T18:11:36.826Z,12.84
2023-05-10T18:14:05.100Z,12.73
2023-05-10T18:16:33.544Z,12.66
2023-05-10T18:19:01.918Z,12.55
2023-05-10T18:21:30.084Z,12.57
2023-05-10T18:23:58.246Z,12.52
2023-05-10T18:26:26.976Z,12.51
2023-05-10T18:28:55.360Z,12.50
2023-05-10T18:31:23.960Z,12.51
2023-05-10T18:33:52.487Z,12.53
2023-05-10T18:36:23.222Z,12.58
2023-05-10T18:38:51.271Z,12.60
2023-05-10T18:41:19.298Z,12.58
2023-05-10T18:43:47.682Z,12.58
2023-05-10T18:46:16.024Z,12.57
2023-05-10T18:48:44.310Z,12.46
2023-05-10T18:51:12.891Z,12.38
2023-05-10T18:53:41.146Z,12.30
2023-05-10T18:56:11.778Z,12.27
2023-05-10T18:58:40.494Z,12.20
2023-05-10T19:01:09.107Z,12.09
2023-05-10T19:03:37.239Z,12.03
2023-05-10T19:06:05.484Z,11.81
2023-05-10T19:08:33.951Z,11.68
2023-05-10T19:11:02.111Z,11.65
2023-05-10T19:13:30.552Z,11.45
2023-05-10T19:16:06.666Z,11.35
2023-05-10T19:18:35.239Z,11.10
2023-05-10T19:21:05.841Z,11.00
2023-05-10T19:23:34.980Z,10.89
2023-05-10T19:26:03.167Z,10.80
2023-05-10T19:28:31.976Z,10.75
2023-05-10T19:31:00.407Z,10.67
2023-05-10T19:33:29.397Z,10.56
2023-05-10T19:35:57.746Z,10.41
2023-05-10T19:38:26.182Z,10.30
2023-05-10T19:40:58.396Z,10.25
2023-05-10T19:43:34.260Z,10.23
2023-05-10T19:46:03.650Z,10.24
2023-05-10T19:48:32.044Z,10.23
2023-05-10T19:51:07.568Z,10.25
2023-05-10T19:53:37.956Z,10.24
2023-05-10T19:56:07.179Z,10.25
2023-05-10T19:58:35.440Z,10.19
2023-05-10T20:01:05.870Z,10.08
2023-05-10T20:03:35.126Z,10.06
2023-05-10T20:06:04.304Z,10.06
2023-05-10T20:08:32.453Z,10.05
2023-05-10T20:11:02.793Z,10.05
2023-05-10T20:13:30.962Z,10.04
2023-05-10T20:15:59.980Z,10.01
2023-05-10T20:18:28.297Z,9.99
2023-05-10T20:20:59.220Z,9.97
2023-05-10T20:23:27.418Z,9.90
2023-05-10T20:25:56.060Z,9.81
2023-05-10T20:28:26.377Z,9.68
2023-05-10T20:30:55.884Z,9.60
2023-05-10T20:33:25.820Z,9.53
2023-05-10T20:35:54.098Z,9.48
2023-05-10T20:38:22.860Z,9.44
2023-05-10T20:40:51.005Z,9.40
2023-05-10T20:43:20.816Z,9.31
2023-05-10T20:45:49.081Z,9.27
2023-05-10T20:48:17.776Z,9.20
2023-05-10T20:50:45.870Z,9.12
2023-05-10T20:53:14.833Z,9.10
2023-05-10T20:55:42.854Z,9.07
2023-05-10T20:58:10.913Z,9.03
2023-05-10T21:00:39.102Z,8.99
2023-05-10T21:03:07.314Z,8.91
2023-05-10T21:05:36.187Z,8.91
2023-05-10T21:08:04.269Z,8.90
2023-05-10T21:10:32.337Z,8.89
2023-05-10T21:13:00.536Z,8.87
2023-05-10T21:15:28.948Z,8.85
2023-05-10T21:17:57.599Z,8.83
2023-05-10T21:20:26.037Z,8.81
2023-05-10T21:22:54.129Z,8.75
2023-05-10T21:25:23.640Z,8.74
2023-05-10T21:27:51.848Z,8.65
2023-05-10T21:30:20.660Z,8.61
2023-05-10T21:32:48.712Z,8.58
2023-05-10T21:35:16.846Z,8.55
2023-05-10T21:37:44.874Z,8.55
2023-05-10T21:40:13.336Z,8.54
2023-05-10T21:42:41.332Z,8.51
2023-05-10T21:45:10.217Z,8.46
2023-05-10T21:47:38.251Z,8.46
2023-05-10T21:50:07.531Z,8.46
2023-05-10T21:52:36.298Z,8.43
2023-05-10T21:55:05.315Z,8.43
2023-05-10T21:57:33.434Z,8.42
2023-05-10T22:00:01.524Z,8.43
2023-05-10T22:02:32.662Z,8.49
2023-05-10T22:05:02.205Z,8.43
2023-05-10T22:07:33.634Z,8.36
2023-05-10T22:10:01.834Z,8.26
2023-05-10T22:12:29.923Z,8.20
2023-05-10T22:15:09.320Z,8.15
2023-05-10T22:17:40.048Z,8.08
2023-05-10T22:20:09.324Z,8.04
2023-05-10T22:22:37.705Z,8.01
2023-05-10T22:25:07.479Z,7.93
2023-05-10T22:27:35.640Z,7.87
2023-05-10T22:30:04.462Z,7.79
2023-05-10T22:32:33.354Z,7.72
2023-05-10T22:35:01.610Z,7.61
2023-05-10T22:37:29.793Z,7.46
2023-05-10T22:39:57.894Z,7.38
2023-05-10T22:42:26.010Z,7.31
2023-05-10T22:44:54.079Z,7.27
2023-05-10T22:47:22.228Z,7.20
2023-05-10T22:49:50.623Z,7.15
2023-05-10T22:52:18.748Z,7.11
2023-05-10T22:54:46.972Z,6.97
2023-05-10T22:57:16.399Z,6.93
2023-05-10T22:59:44.566Z,6.84
2023-05-10T23:02:14.334Z,6.77
2023-05-10T23:04:42.531Z,6.64
2023-05-10T23:07:11.685Z,6.55
2023-05-10T23:09:39.838Z,6.56
2023-05-10T23:12:07.846Z,6.54
2023-05-10T23:14:35.908Z,6.47
2023-05-10T23:17:03.912Z,6.45
2023-05-10T23:19:32.245Z,6.47
2023-05-10T23:22:00.332Z,6.47
2023-05-10T23:24:29.167Z,6.41
2023-05-10T23:26:57.330Z,6.44
2023-05-10T23:29:26.398Z,6.43
2023-05-10T23:31:54.591Z,6.49
2023-05-10T23:34:22.670Z,6.51
2023-05-10T23:36:50.611Z,6.50
2023-05-10T23:39:19.125Z,6.50
2023-05-10T23:41:47.219Z,6.42
2023-05-10T23:44:15.634Z,6.29
2023-05-10T23:46:43.686Z,6.14
2023-05-10T23:49:12.004Z,6.04
2023-05-10T23:51:40.599Z,5.97
2023-05-10T23:54:08.912Z,5.91
2023-05-10T23:56:37.719Z,5.84
2023-05-10T23:59:08.449Z,5.84
